createdAt,value
2019-05-19T00:01:10.275Z,99402.45
2019-05-19T00:03:38.647Z,99403.53
2019-05-19T00:06:07.033Z,99407.57
2019-05-19T00:08:37.147Z,99400.14
2019-05-19T00:11:05.524Z,99404.42
2019-05-19T00:13:36.993Z,99403.83
2019-05-19T00:16:05.373Z,99403.20
2019-05-19T00:18:33.789Z,99400.44
2019-05-19T00:21:02.215Z,99400.72
2019-05-19T00:23:32.099Z,99400.44
2019-05-19T00:26:02.074Z,99404.72
2019-05-19T00:28:30.485Z,99405.80
2019-05-19T00:30:58.850Z,99402.77
2019-05-19T00:33:27.383Z,99389.72
2019-05-19T00:35:55.751Z,99385.33
2019-05-19T00:38:24.170Z,99389.95
2019-05-19T00:40:52.537Z,99382.56
2019-05-19T00:43:21.110Z,99380.56
2019-05-19T00:45:49.490Z,99373.97
2019-05-19T00:48:19.480Z,99375.57
2019-05-19T00:50:47.899Z,99375.49
2019-05-19T00:53:17.788Z,99373.25
2019-05-19T00:55:46.251Z,99374.02
2019-05-19T00:58:15.088Z,99374.81
2019-05-19T01:00:43.568Z,99352.23
2019-05-19T01:03:11.927Z,99376.66
2019-05-19T01:05:40.311Z,99369.02
2019-05-19T01:08:08.712Z,99368.30
2019-05-19T01:10:38.673Z,99362.66
2019-05-19T01:13:07.048Z,99357.50
2019-05-19T01:15:35.428Z,99360.05
2019-05-19T01:18:04.615Z,99360.33
2019-05-19T01:20:35.830Z,99349.17
2019-05-19T01:23:04.364Z,99358.25
2019-05-19T01:25:32.725Z,99356.33
2019-05-19T01:28:01.133Z,99352.80
2019-05-19T01:30:29.569Z,99360.66
2019-05-19T01:32:57.955Z,99351.09
2019-05-19T01:35:26.341Z,99356.50
2019-05-19T01:37:54.754Z,99360.53
2019-05-19T01:40:23.121Z,99353.10
2019-05-19T01:42:51.509Z,99353.82
2019-05-19T01:45:20.060Z,99355.14
2019-05-19T01:47:48.452Z,99357.02
2019-05-19T01:50:18.574Z,99355.38
2019-05-19T01:52:49.956Z,99363.30
2019-05-19T01:55:18.522Z,99359.50
2019-05-19T01:57:46.895Z,99357.14
2019-05-19T02:00:15.615Z,99359.66
2019-05-19T02:02:44.232Z,99361.58
2019-05-19T02:05:12.756Z,99365.73
2019-05-19T02:07:41.281Z,99369.25
2019-05-19T02:10:10.496Z,99365.73
2019-05-19T02:12:38.935Z,99360.81
2019-05-19T02:15:08.455Z,99359.56
2019-05-19T02:17:40.419Z,99356.89
2019-05-19T02:20:09.431Z,99360.48
2019-05-19T02:22:39.372Z,99361.73
2019-05-19T02:25:08.576Z,99362.22
2019-05-19T02:27:36.994Z,99362.94
2019-05-19T02:30:10.762Z,99360.14
2019-05-19T02:32:39.211Z,99360.63
2019-05-19T02:35:08.218Z,99361.58
2019-05-19T02:37:36.619Z,99365.86
2019-05-19T02:40:09.506Z,99366.34
2019-05-19T02:42:40.975Z,99367.13
2019-05-19T02:45:10.879Z,99367.38
2019-05-19T02:47:42.358Z,99372.58
2019-05-19T02:50:11.767Z,99373.14
2019-05-19T02:52:43.319Z,99371.25
2019-05-19T02:55:11.856Z,99376.69
2019-05-19T02:57:42.191Z,99371.25
2019-05-19T03:00:11.500Z,99368.02
2019-05-19T03:02:39.882Z,99369.41
2019-05-19T03:05:08.462Z,99365.86
2019-05-19T03:07:38.396Z,99366.14
2019-05-19T03:10:07.303Z,99361.78
2019-05-19T03:12:38.144Z,99371.30
2019-05-19T03:15:07.362Z,99370.73
2019-05-19T03:17:35.751Z,99371.53
2019-05-19T03:20:06.373Z,99369.66
2019-05-19T03:22:34.739Z,99371.30
2019-05-19T03:25:03.868Z,99369.94
2019-05-19T03:27:32.407Z,99377.26
2019-05-19T03:30:06.096Z,99367.22
2019-05-19T03:32:41.749Z,99367.74
2019-05-19T03:35:10.283Z,99366.70
2019-05-19T03:37:38.741Z,99370.82
2019-05-19T03:40:08.863Z,99364.50
2019-05-19T03:42:37.407Z,99367.38
2019-05-19T03:45:06.443Z,99368.53
2019-05-19T03:47:34.999Z,99369.66
2019-05-19T03:50:06.440Z,99369.45
2019-05-19T03:52:36.277Z,99347.23
2019-05-19T03:55:06.332Z,99370.34
2019-05-19T03:57:34.939Z,99369.02
2019-05-19T04:00:06.418Z,99375.05
2019-05-19T04:02:34.799Z,99371.45
2019-05-19T04:05:04.373Z,99377.25
2019-05-19T04:07:32.849Z,99374.80
2019-05-19T04:10:01.229Z,99385.77
2019-05-19T04:12:29.697Z,99381.16
2019-05-19T04:14:58.090Z,99383.12
2019-05-19T04:17:26.474Z,99381.48
2019-05-19T04:19:54.880Z,99383.48
2019-05-19T04:22:23.261Z,99385.75
2019-05-19T04:24:53.170Z,99381.19
2019-05-19T04:27:21.535Z,99386.14
2019-05-19T04:29:49.936Z,99396.05
2019-05-19T04:32:18.337Z,99388.28
2019-05-19T04:34:46.731Z,99394.42
2019-05-19T04:37:15.129Z,99408.73
2019-05-19T04:39:43.527Z,99411.88
2019-05-19T04:42:11.914Z,99419.58
2019-05-19T04:44:40.311Z,99416.72
2019-05-19T04:47:10.468Z,99412.70
2019-05-19T04:49:38.848Z,99408.13
2019-05-19T04:52:07.608Z,99412.55
2019-05-19T04:54:36.407Z,99416.42
2019-05-19T04:57:06.316Z,99415.90
2019-05-19T04:59:34.772Z,99412.38
2019-05-19T05:02:04.197Z,99415.50
2019-05-19T05:04:32.851Z,99407.48
2019-05-19T05:07:01.346Z,99417.35
2019-05-19T05:09:29.787Z,99414.86
2019-05-19T05:11:59.690Z,99420.72
2019-05-19T05:14:28.165Z,99418.41
2019-05-19T05:16:56.543Z,99417.13
2019-05-19T05:19:24.932Z,99408.47
2019-05-19T05:21:53.347Z,99411.23
2019-05-19T05:24:21.715Z,99413.79
2019-05-19T05:26:50.797Z,99415.69
2019-05-19T05:29:19.341Z,99413.23
2019-05-19T05:31:47.836Z,99429.68
2019-05-19T05:34:16.203Z,99428.34
2019-05-19T05:36:44.738Z,99432.70
2019-05-19T05:39:13.111Z,99430.81
2019-05-19T05:41:43.214Z,99427.50
2019-05-19T05:44:11.586Z,99430.23
2019-05-19T05:46:39.986Z,99429.17
2019-05-19T05:49:08.374Z,99422.92
2019-05-19T05:51:38.312Z,99425.70
2019-05-19T05:54:06.694Z,99424.89
2019-05-19T05:56:35.107Z,99424.45
2019-05-19T05:59:05.796Z,99415.87
2019-05-19T06:01:35.707Z,99397.30
2019-05-19T06:04:04.186Z,99418.96
2019-05-19T06:06:32.622Z,99424.94
2019-05-19T06:09:01.005Z,99423.95
2019-05-19T06:11:29.423Z,99425.46
2019-05-19T06:13:57.802Z,99418.48
2019-05-19T06:16:26.184Z,99421.87
2019-05-19T06:18:56.777Z,99421.65
2019-05-19T06:21:24.819Z,99417.59
2019-05-19T06:23:53.210Z,99424.20
2019-05-19T06:26:21.655Z,99417.66
2019-05-19T06:28:51.740Z,99421.17
2019-05-19T06:31:20.156Z,99427.25
2019-05-19T06:33:48.542Z,99423.11
2019-05-19T06:36:17.148Z,99427.48
2019-05-19T06:38:45.623Z,99428.34
2019-05-19T06:41:14.135Z,99429.49
2019-05-19T06:43:44.129Z,99432.02
2019-05-19T06:46:12.503Z,99432.86
2019-05-19T06:48:40.953Z,99432.85
2019-05-19T06:51:09.330Z,99437.28
2019-05-19T06:53:37.757Z,99434.83
2019-05-19T06:56:06.137Z,99434.03
2019-05-19T06:58:34.606Z,99425.52
2019-05-19T07:01:02.984Z,99429.39
2019-05-19T07:03:34.431Z,99427.15
2019-05-19T07:06:03.013Z,99428.50
2019-05-19T07:08:31.449Z,99424.38
2019-05-19T07:10:59.817Z,99427.39
2019-05-19T07:13:28.434Z,99428.17
2019-05-19T07:15:56.902Z,99428.17
2019-05-19T07:18:25.282Z,99430.09
2019-05-19T07:20:53.757Z,99425.94
2019-05-19T07:23:28.212Z,99426.47
2019-05-19T07:25:55.051Z,99420.48
2019-05-19T07:28:23.424Z,99422.66
2019-05-19T07:30:54.182Z,99415.23
2019-05-19T07:33:22.524Z,99415.23
2019-05-19T07:35:52.413Z,99405.26
2019-05-19T07:38:20.787Z,99418.59
2019-05-19T07:40:49.209Z,99411.98
2019-05-19T07:43:17.648Z,99414.75
2019-05-19T07:45:46.116Z,99413.39
2019-05-19T07:48:17.390Z,99417.23
2019-05-19T07:50:45.818Z,99408.88
2019-05-19T07:53:14.187Z,99416.22
2019-05-19T07:55:42.713Z,99415.01
2019-05-19T07:58:11.886Z,99407.80
2019-05-19T08:00:40.467Z,99411.47
2019-05-19T08:03:08.838Z,99411.17
2019-05-19T08:05:37.293Z,99408.42
2019-05-19T08:08:05.681Z,99404.30
2019-05-19T08:10:34.110Z,99401.77
2019-05-19T08:13:02.466Z,99398.95
2019-05-19T08:15:30.855Z,99396.28
2019-05-19T08:17:59.466Z,99393.70
2019-05-19T08:20:27.925Z,99398.37
2019-05-19T08:22:56.299Z,99403.05
2019-05-19T08:25:24.745Z,99403.01
2019-05-19T08:27:53.209Z,99409.10
2019-05-19T08:30:22.099Z,99406.34
2019-05-19T08:32:50.820Z,99409.52
2019-05-19T08:35:19.336Z,99414.98
2019-05-19T08:37:47.779Z,99408.59
2019-05-19T08:40:16.316Z,99413.92
2019-05-19T08:42:45.369Z,99408.89
2019-05-19T08:45:14.337Z,99411.81
2019-05-19T08:47:42.733Z,99411.31
2019-05-19T08:50:11.410Z,99408.95
2019-05-19T08:52:41.302Z,99405.06
2019-05-19T08:55:10.072Z,99403.87
2019-05-19T08:57:38.450Z,99407.23
2019-05-19T09:00:07.272Z,99403.80
2019-05-19T09:02:35.670Z,99400.27
2019-05-19T09:05:06.670Z,99394.86
2019-05-19T09:07:35.252Z,99367.09
2019-05-19T09:10:07.376Z,99389.16
2019-05-19T09:12:35.761Z,99391.02
2019-05-19T09:15:06.674Z,99384.91
2019-05-19T09:17:35.293Z,99387.23
2019-05-19T09:20:05.646Z,99387.02
2019-05-19T09:22:36.887Z,99375.43
2019-05-19T09:25:07.081Z,99376.87
2019-05-19T09:27:37.190Z,99382.91
2019-05-19T09:30:09.611Z,99382.45
2019-05-19T09:32:37.954Z,99376.15
2019-05-19T09:35:07.940Z,99380.75
2019-05-19T09:37:36.396Z,99377.52
2019-05-19T09:40:10.130Z,99373.45
2019-05-19T09:42:38.725Z,99378.99
2019-05-19T09:45:08.486Z,99365.77
2019-05-19T09:47:37.870Z,99363.63
2019-05-19T09:50:07.667Z,99362.23
2019-05-19T09:52:36.095Z,99362.73
2019-05-19T09:55:06.586Z,99361.25
2019-05-19T09:57:34.983Z,99362.94
2019-05-19T10:00:06.586Z,99365.34
2019-05-19T10:02:35.041Z,99342.34
2019-05-19T10:05:06.625Z,99362.45
2019-05-19T10:07:35.087Z,99343.70
2019-05-19T10:10:13.656Z,99364.12
2019-05-19T10:12:42.066Z,99349.44
2019-05-19T10:15:12.996Z,99365.61
2019-05-19T10:17:41.398Z,99365.61
2019-05-19T10:20:10.517Z,99360.33
2019-05-19T10:22:39.139Z,99355.36
2019-05-19T10:25:21.717Z,99347.44
2019-05-19T10:27:41.400Z,99345.14
2019-05-19T10:30:10.402Z,99340.80
2019-05-19T10:32:38.973Z,99343.30
2019-05-19T10:35:08.258Z,99342.48
2019-05-19T10:37:36.800Z,99342.98
2019-05-19T10:40:06.396Z,99343.06
2019-05-19T10:42:35.009Z,99334.27
2019-05-19T10:45:07.407Z,99328.64
2019-05-19T10:47:37.031Z,99333.52
2019-05-19T10:50:07.111Z,99336.59
2019-05-19T10:52:38.231Z,99333.41
2019-05-19T10:55:07.052Z,99332.05
2019-05-19T10:57:35.462Z,99305.47
2019-05-19T11:00:07.714Z,99331.97
2019-05-19T11:02:36.216Z,99322.67
2019-05-19T11:05:06.442Z,99335.89
2019-05-19T11:07:35.994Z,99330.53
2019-05-19T11:10:08.246Z,99328.44
2019-05-19T11:12:36.899Z,99330.34
2019-05-19T11:15:09.514Z,99323.32
2019-05-19T11:17:38.003Z,99327.07
2019-05-19T11:20:06.736Z,99327.81
2019-05-19T11:22:35.117Z,99324.38
2019-05-19T11:25:05.576Z,99319.06
2019-05-19T11:27:33.940Z,99308.05
2019-05-19T11:30:02.333Z,99321.80
2019-05-19T11:32:30.711Z,99319.86
2019-05-19T11:34:59.111Z,99331.27
2019-05-19T11:37:27.692Z,99331.42
2019-05-19T11:39:56.187Z,99332.86
2019-05-19T11:42:25.989Z,99327.02
2019-05-19T11:44:55.943Z,99326.64
2019-05-19T11:47:24.399Z,99329.05
2019-05-19T11:49:57.512Z,99306.42
2019-05-19T11:52:27.342Z,99316.97
2019-05-19T11:54:55.872Z,99316.47
2019-05-19T11:57:24.231Z,99319.48
2019-05-19T11:59:52.629Z,99320.30
2019-05-19T12:02:21.048Z,99318.92
2019-05-19T12:04:50.995Z,99327.47
2019-05-19T12:07:19.346Z,99325.42
2019-05-19T12:09:47.785Z,99309.23
2019-05-19T12:12:16.156Z,99317.58
2019-05-19T12:14:44.549Z,99319.64
2019-05-19T12:33:35.113Z,99298.68
2019-05-19T12:36:05.095Z,99291.19
2019-05-19T12:38:33.979Z,99282.57
2019-05-19T12:41:02.456Z,99284.63
2019-05-19T12:43:30.824Z,99283.58
2019-05-19T12:46:00.819Z,99288.44
2019-05-19T12:48:29.313Z,99282.84
2019-05-19T12:50:57.701Z,99284.14
2019-05-19T12:53:26.119Z,99281.01
2019-05-19T12:55:54.733Z,99277.67
2019-05-19T12:58:23.087Z,99280.81
2019-05-19T13:00:51.488Z,99274.52
2019-05-19T13:03:20.636Z,99268.94
2019-05-19T13:05:56.343Z,99265.66
2019-05-19T13:08:24.685Z,99260.73
2019-05-19T13:10:53.081Z,99262.33
2019-05-19T13:13:21.634Z,99252.28
2019-05-19T13:15:50.139Z,99252.28
2019-05-19T13:18:18.513Z,99247.88
2019-05-19T13:20:46.888Z,99249.58
2019-05-19T13:23:15.366Z,99243.83
2019-05-19T13:25:45.183Z,99249.48
2019-05-19T13:28:13.600Z,99248.11
2019-05-19T13:30:43.720Z,99244.98
2019-05-19T13:33:12.565Z,99243.12
2019-05-19T13:35:40.937Z,99236.82
2019-05-19T13:38:09.528Z,99238.11
2019-05-19T13:40:37.904Z,99221.22
2019-05-19T13:43:07.580Z,99224.39
2019-05-19T13:45:36.073Z,99221.45
2019-05-19T13:48:04.473Z,99223.83
2019-05-19T13:50:32.859Z,99216.86
2019-05-19T13:53:01.255Z,99212.47
2019-05-19T13:55:29.610Z,99211.98
2019-05-19T13:57:58.077Z,99208.75
2019-05-19T14:00:26.538Z,99212.38
2019-05-19T14:02:54.933Z,99201.68
2019-05-19T14:05:23.330Z,99210.02
2019-05-19T14:07:52.101Z,99211.00
2019-05-19T14:10:20.623Z,99210.70
2019-05-19T14:12:50.598Z,99204.67
2019-05-19T14:15:20.603Z,99202.87
2019-05-19T14:17:49.018Z,99206.87
2019-05-19T14:20:17.569Z,99203.16
2019-05-19T14:22:45.999Z,99197.73
2019-05-19T14:25:14.630Z,99194.20
2019-05-19T14:27:43.292Z,99197.22
2019-05-19T14:30:12.109Z,99192.16
2019-05-19T14:32:40.565Z,99190.14
2019-05-19T14:35:09.446Z,99186.92
2019-05-19T14:37:39.240Z,99185.45
2019-05-19T14:40:09.594Z,99191.17
2019-05-19T14:42:42.489Z,99187.30
2019-05-19T14:45:12.069Z,99188.52
2019-05-19T14:47:40.663Z,99188.19
2019-05-19T14:50:11.348Z,99190.20
2019-05-19T14:52:42.903Z,99182.43
2019-05-19T14:55:11.444Z,99177.87
2019-05-19T14:57:44.882Z,99176.45
2019-05-19T15:00:11.307Z,99172.45
2019-05-19T15:02:39.959Z,99176.83
2019-05-19T15:05:08.582Z,99177.83
2019-05-19T15:07:36.982Z,99167.05
2019-05-19T15:10:07.181Z,99169.94
2019-05-19T15:12:35.533Z,99172.97
2019-05-19T15:15:06.584Z,99170.56
2019-05-19T15:17:37.099Z,99167.33
2019-05-19T15:20:07.034Z,99168.77
2019-05-19T15:22:35.418Z,99163.41
2019-05-19T15:25:05.261Z,99171.48
2019-05-19T15:27:35.290Z,99165.03
2019-05-19T15:30:13.282Z,99167.00
2019-05-19T15:32:38.476Z,99138.20
2019-05-19T15:35:07.598Z,99163.31
2019-05-19T15:37:35.975Z,99165.30
2019-05-19T15:40:09.975Z,99157.77
2019-05-19T15:42:38.396Z,99153.56
2019-05-19T15:45:07.314Z,99158.49
2019-05-19T15:47:35.696Z,99154.91
2019-05-19T15:50:12.854Z,99160.40
2019-05-19T15:52:43.396Z,99129.50
2019-05-19T15:55:13.086Z,99151.17
2019-05-19T15:57:41.456Z,99147.42
2019-05-19T16:00:11.203Z,99152.14
2019-05-19T16:02:39.687Z,99147.75
2019-05-19T16:05:09.138Z,99147.98
2019-05-19T16:07:37.563Z,99153.14
2019-05-19T16:10:08.355Z,99153.53
2019-05-19T16:12:36.817Z,99150.28
2019-05-19T16:15:06.950Z,99145.48
2019-05-19T16:17:36.836Z,99139.02
2019-05-19T16:20:09.349Z,99144.23
2019-05-19T16:22:37.993Z,99140.17
2019-05-19T16:25:07.519Z,99137.55
2019-05-19T16:27:35.895Z,99134.95
2019-05-19T16:30:10.375Z,99139.02
2019-05-19T16:32:40.325Z,99143.34
2019-05-19T16:35:09.009Z,99151.28
2019-05-19T16:37:37.456Z,99144.02
2019-05-19T16:40:06.838Z,99147.17
2019-05-19T16:42:35.213Z,99148.41
2019-05-19T16:45:06.935Z,99142.66
2019-05-19T16:47:35.319Z,99143.55
2019-05-19T16:50:05.687Z,99146.20
2019-05-19T16:52:34.135Z,99106.91
2019-05-19T16:55:20.041Z,99145.62
2019-05-19T16:57:50.030Z,99144.60
2019-05-19T17:00:20.149Z,99137.60
2019-05-19T17:02:48.534Z,99145.63
2019-05-19T17:05:17.253Z,99147.29
2019-05-19T17:07:45.719Z,99140.92
2019-05-19T17:10:14.843Z,99140.41
2019-05-19T17:12:47.101Z,99140.41
2019-05-19T17:15:16.857Z,99136.71
2019-05-19T17:17:45.227Z,99139.87
2019-05-19T17:20:15.520Z,99127.11
2019-05-19T17:22:45.641Z,99127.94
2019-05-19T17:25:14.365Z,99128.81
2019-05-19T17:27:42.751Z,99127.39
2019-05-19T17:30:13.019Z,99127.86
2019-05-19T17:32:41.392Z,99131.45
2019-05-19T17:35:11.110Z,99132.84
2019-05-19T17:37:42.509Z,99136.36
2019-05-19T17:40:11.414Z,99139.05
2019-05-19T17:42:39.932Z,99141.73
2019-05-19T17:45:09.079Z,99141.10
2019-05-19T17:47:37.530Z,99145.02
2019-05-19T17:50:07.376Z,99151.02
2019-05-19T17:52:35.758Z,99154.84
2019-05-19T17:55:06.135Z,99152.87
2019-05-19T17:57:35.421Z,99156.23
2019-05-19T18:00:06.230Z,99164.53
2019-05-19T18:02:34.622Z,99163.31
2019-05-19T18:05:02.997Z,99140.16
2019-05-19T18:07:31.694Z,99170.53
2019-05-19T18:10:00.154Z,99172.88
2019-05-19T18:12:28.544Z,99170.42
2019-05-19T18:14:56.919Z,99174.41
2019-05-19T18:17:25.608Z,99174.62
2019-05-19T18:19:54.164Z,99172.66
2019-05-19T18:22:22.530Z,99176.80
2019-05-19T18:24:50.954Z,99176.95
2019-05-19T18:27:19.330Z,99184.03
2019-05-19T18:29:47.735Z,99178.70
2019-05-19T18:32:16.310Z,99174.66
2019-05-19T18:34:44.881Z,99181.41
2019-05-19T18:37:13.605Z,99185.67
2019-05-19T18:39:42.877Z,99183.31
2019-05-19T18:42:11.264Z,99192.85
2019-05-19T18:44:39.636Z,99194.44
2019-05-19T18:47:08.026Z,99193.27
2019-05-19T18:49:36.396Z,99202.02
2019-05-19T18:52:05.060Z,99192.81
2019-05-19T18:54:33.539Z,99191.20
2019-05-19T18:57:01.917Z,99191.20
2019-05-19T18:59:30.302Z,99193.59
2019-05-19T19:01:59.787Z,99190.41
2019-05-19T19:04:29.707Z,99193.05
2019-05-19T19:06:59.464Z,99186.91
2019-05-19T19:09:27.884Z,99189.24
2019-05-19T19:11:56.355Z,99192.64
2019-05-19T19:14:27.611Z,99197.39
2019-05-19T19:16:55.025Z,99204.73
2019-05-19T19:19:23.407Z,99206.55
2019-05-19T19:21:52.569Z,99219.36
2019-05-19T19:24:22.650Z,99220.33
2019-05-19T19:26:53.385Z,99223.78
2019-05-19T19:29:21.984Z,99235.22
2019-05-19T19:31:52.267Z,99228.77
2019-05-19T19:34:20.619Z,99223.14
2019-05-19T19:36:49.506Z,99224.09
2019-05-19T19:39:18.080Z,99220.34
2019-05-19T19:41:46.460Z,99230.05
2019-05-19T19:44:15.168Z,99229.87
2019-05-19T19:46:45.135Z,99220.60
2019-05-19T19:49:13.733Z,99220.64
2019-05-19T19:51:42.967Z,99220.45
2019-05-19T19:54:11.341Z,99227.14
2019-05-19T19:56:39.759Z,99218.93
2019-05-19T19:59:08.181Z,99229.73
2019-05-19T20:01:37.515Z,99238.06
2019-05-19T20:04:05.907Z,99235.40
2019-05-19T20:06:34.329Z,99240.14
2019-05-19T20:09:05.742Z,99245.72
2019-05-19T20:11:34.235Z,99242.22
2019-05-19T20:14:02.665Z,99237.02
2019-05-19T20:16:31.055Z,99243.38
2019-05-19T20:18:59.590Z,99241.20
2019-05-19T20:21:29.629Z,99251.14
2019-05-19T20:23:58.012Z,99239.38
2019-05-19T20:26:26.425Z,99243.81
2019-05-19T20:28:54.861Z,99245.23
2019-05-19T20:31:23.293Z,99237.64
2019-05-19T20:33:51.765Z,99229.47
2019-05-19T20:36:20.354Z,99222.68
2019-05-19T20:38:48.808Z,99216.37
2019-05-19T20:41:17.362Z,99217.54
2019-05-19T20:43:48.307Z,99226.03
2019-05-19T20:46:17.434Z,99225.78
2019-05-19T20:48:45.904Z,99233.45
2019-05-19T20:51:14.286Z,99233.16
2019-05-19T20:53:42.702Z,99233.72
2019-05-19T20:56:11.080Z,99234.25
2019-05-19T20:58:39.483Z,99239.47
2019-05-19T21:01:07.877Z,99242.73
2019-05-19T21:03:36.416Z,99240.28
2019-05-19T21:06:05.118Z,99234.80
2019-05-19T21:08:33.464Z,99244.39
2019-05-19T21:11:01.925Z,99252.05
2019-05-19T21:13:30.492Z,99252.61
2019-05-19T21:15:58.891Z,99255.06
2019-05-19T21:18:27.266Z,99257.81
2019-05-19T21:20:55.695Z,99267.67
2019-05-19T21:23:24.841Z,99263.30
2019-05-19T21:25:54.718Z,99272.08
2019-05-19T21:28:23.106Z,99274.25
2019-05-19T21:31:04.865Z,99274.52
2019-05-19T21:33:21.626Z,99277.53
2019-05-19T21:35:51.675Z,99275.91
2019-05-19T21:38:20.041Z,99280.02
2019-05-19T21:40:48.428Z,99282.75
2019-05-19T21:43:18.334Z,99279.45
2019-05-19T21:45:48.262Z,99285.50
2019-05-19T21:48:18.428Z,99284.67
2019-05-19T21:50:46.863Z,99285.78
2019-05-19T21:53:16.761Z,99286.05
2019-05-19T21:55:45.144Z,99286.05
2019-05-19T21:58:13.522Z,99293.72
2019-05-19T22:00:42.188Z,99285.21
2019-05-19T22:03:10.586Z,99283.28
2019-05-19T22:05:52.498Z,99277.82
2019-05-19T22:08:10.814Z,99278.09
2019-05-19T22:10:39.312Z,99283.56
2019-05-19T22:13:07.931Z,99283.81
2019-05-19T22:15:36.323Z,99284.86
2019-05-19T22:18:04.699Z,99285.13
2019-05-19T22:20:33.188Z,99288.69
2019-05-19T22:23:01.587Z,99287.05
2019-05-19T22:25:30.053Z,99281.31
2019-05-19T22:27:58.436Z,99286.50
2019-05-19T22:30:26.849Z,99288.41
2019-05-19T22:32:55.245Z,99291.11
2019-05-19T22:35:23.673Z,99289.48
2019-05-19T22:37:53.567Z,99288.08
2019-05-19T22:40:22.154Z,99290.51
2019-05-19T22:42:50.529Z,99286.91
2019-05-19T22:45:20.559Z,99292.11
2019-05-19T22:47:50.993Z,99301.14
2019-05-19T22:50:19.515Z,99300.27
2019-05-19T22:52:47.901Z,99301.63
2019-05-19T22:55:18.385Z,99292.59
2019-05-19T22:57:46.798Z,99294.22
2019-05-19T23:00:15.929Z,99296.42
2019-05-19T23:02:47.118Z,99297.53
2019-05-19T23:05:16.143Z,99290.13
2019-05-19T23:07:44.651Z,99290.38
2019-05-19T23:10:14.702Z,99281.88
2019-05-19T23:12:43.103Z,99284.59
2019-05-19T23:15:11.676Z,99281.86
2019-05-19T23:17:41.635Z,99290.28
2019-05-19T23:20:11.681Z,99285.64
2019-05-19T23:22:43.158Z,99276.29
2019-05-19T23:25:12.899Z,99284.21
2019-05-19T23:27:42.592Z,99281.41
2019-05-19T23:30:12.401Z,99281.65
2019-05-19T23:32:40.930Z,99273.39
2019-05-19T23:35:09.430Z,99274.44
2019-05-19T23:37:37.844Z,99273.02
2019-05-19T23:40:07.763Z,99280.08
2019-05-19T23:42:36.423Z,99280.02
2019-05-19T23:45:07.010Z,99275.31
2019-05-19T23:47:35.481Z,99279.66
2019-05-19T23:50:05.820Z,99274.98
2019-05-19T23:52:34.414Z,99249.71
2019-05-19T23:55:03.189Z,99274.38
2019-05-19T23:57:31.556Z,99276.81
2019-05-19T23:59:59.929Z,99281.70
